Aviation Digital Data Service (ADDS)

Output produced by METARs form (0225 UTC 24 September 2014)
found at http://www.aviationweather.gov/adds/metars/
 
KROW 240151Z 17006KT 10SM CLR 22/18 A3009 RMK AO2 SLP137 T02170178
KROW 240051Z 17005KT 10SM CLR 23/18 A3009 RMK AO2 SLP134 T02330178
KROW 232351Z 17011KT 10SM CLR 26/17 A3009 RMK AO2 SLP130 T02560167 10267 20228 56010
KROW 232251Z 18008KT 10SM CLR 26/16 A3009 RMK AO2 SLP131 T02560161
KROW 232151Z 16008KT 10SM SCT120 26/16 A3010 RMK AO2 SLP135 T02610156
KROW 232051Z 13007KT 10SM CLR 26/15 A3012 RMK AO2 SLP142 T02560150 58024
KROW 231951Z 17009KT 10SM FEW120 26/16 A3015 RMK AO2 SLP150 T02560156
KROW 231851Z 14007KT 10SM BKN120 24/16 A3018 RMK AO2 SLP162 T02390161
KROW 231751Z 16006KT 10SM CLR 23/15 A3020 RMK AO2 SLP171 T02280150 10233 20183 58001
KROW 231651Z 15008KT 10SM CLR 23/16 A3021 RMK AO2 SLP174 T02280161
KROW 231551Z 19006KT 10SM FEW055 21/17 A3021 RMK AO2 SLP176 T02110167
KROW 231451Z 16005KT 8SM FEW110 19/17 A3020 RMK AO2 SLP177 T01940172 53010
KROW 231351Z 19003KT 4SM BR FEW120 19/17 A3019 RMK AO2 SLP173 T01890172
KROW 231251Z 16004KT 5SM BR SCT110 18/17 A3018 RMK AO2 SLP168 T01830172
KROW 231151Z 16006KT 5SM BR OVC095 19/17 A3017 RMK AO2 SLP165 70052 T01890172 10200 20189 58003
KROW 231051Z AUTO 00000KT 6SM BR OVC060 19/18 A3019 RMK AO2 SLP170 T01940178
KROW 230951Z AUTO 00000KT 6SM BR BKN060 OVC080 19/18 A3019 RMK AO2 SLP171 T01940178
KROW 230851Z AUTO 12003KT 5SM BR BKN055 OVC075 19/18 A3018 RMK AO2 SLP169 T01890183 58014
KROW 230751Z AUTO 07004KT 4SM BR OVC060 19/18 A3020 RMK AO2 SLP177 T01940183
KROW 230651Z AUTO 00000KT 5SM BR OVC055 19/18 A3021 RMK AO2 SLP179 T01940183 402110189
KROW 230551Z AUTO 25004KT 9SM OVC055 20/18 A3023 RMK AO2 SLP183 T02000183 10211 20189 51005
KROW 230451Z AUTO 22003KT 6SM BR BKN050 OVC065 19/18 A3023 RMK AO2 SLP184 T01940183
KROW 230351Z AUTO 17005KT 7SM FEW120 19/18 A3022 RMK AO2 SLP182 T01940178
KROW 230251Z AUTO 17006KT 6SM BR CLR 19/18 A3021 RMK AO2 SLP178 T01940178 50002
KROW 231737Z 2318/2418 17005KT P6SM FEW060 BKN090 
     FM232200 18010KT P6SM VCSH BKN050 
     FM240200 19007KT P6SM OVC040 
     FM240900 14004KT 4SM BR BKN025 
     FM241500 VRB05KT P6SM BKN100